sensor_id;sensor_type;location;lat;lon;timestamp;P1;durP1;ratioP1;P2;durP2;ratioP2
59127;SDS011;44912;52.754;5.994;2022-11-20T00:01:12;16.60;;;9.68;;
59127;SDS011;44912;52.754;5.994;2022-11-20T00:03:48;16.58;;;9.80;;
59127;SDS011;44912;52.754;5.994;2022-11-20T00:06:15;15.02;;;7.60;;
59127;SDS011;44912;52.754;5.994;2022-11-20T00:08:42;13.02;;;7.65;;
59127;SDS011;44912;52.754;5.994;2022-11-20T00:11:10;13.40;;;7.85;;
59127;SDS011;44912;52.754;5.994;2022-11-20T00:13:38;13.25;;;7.35;;
59127;SDS011;44912;52.754;5.994;2022-11-20T00:16:04;11.02;;;7.00;;
59127;SDS011;44912;52.754;5.994;2022-11-20T00:18:34;14.45;;;7.88;;
59127;SDS011;44912;52.754;5.994;2022-11-20T00:21:00;12.13;;;7.18;;
59127;SDS011;44912;52.754;5.994;2022-11-20T00:23:30;14.20;;;8.07;;
59127;SDS011;44912;52.754;5.994;2022-11-20T00:25:56;13.55;;;8.07;;
59127;SDS011;44912;52.754;5.994;2022-11-20T00:28:27;12.70;;;7.80;;
59127;SDS011;44912;52.754;5.994;2022-11-20T00:30:54;14.40;;;7.70;;
59127;SDS011;44912;52.754;5.994;2022-11-20T00:33:28;17.50;;;9.40;;
59127;SDS011;44912;52.754;5.994;2022-11-20T00:35:58;15.10;;;9.02;;
59127;SDS011;44912;52.754;5.994;2022-11-20T00:38:31;17.27;;;8.85;;
59127;SDS011;44912;52.754;5.994;2022-11-20T00:40:57;16.50;;;8.85;;
59127;SDS011;44912;52.754;5.994;2022-11-20T00:43:24;16.73;;;8.43;;
59127;SDS011;44912;52.754;5.994;2022-11-20T00:45:51;14.48;;;8.05;;
59127;SDS011;44912;52.754;5.994;2022-11-20T00:48:24;13.73;;;8.55;;
59127;SDS011;44912;52.754;5.994;2022-11-20T00:50:50;14.85;;;8.82;;
59127;SDS011;44912;52.754;5.994;2022-11-20T00:53:15;15.85;;;9.18;;
59127;SDS011;44912;52.754;5.994;2022-11-20T00:55:41;16.77;;;9.35;;
59127;SDS011;44912;52.754;5.994;2022-11-20T00:58:06;14.95;;;9.20;;
59127;SDS011;44912;52.754;5.994;2022-11-20T01:00:32;16.35;;;9.23;;
59127;SDS011;44912;52.754;5.994;2022-11-20T01:02:58;19.75;;;10.75;;
59127;SDS011;44912;52.754;5.994;2022-11-20T01:05:23;20.65;;;10.52;;
59127;SDS011;44912;52.754;5.994;2022-11-20T01:07:49;17.42;;;10.15;;
59127;SDS011;44912;52.754;5.994;2022-11-20T01:10:14;15.15;;;9.23;;
59127;SDS011;44912;52.754;5.994;2022-11-20T01:12:40;15.35;;;8.68;;
59127;SDS011;44912;52.754;5.994;2022-11-20T01:15:05;14.68;;;9.32;;
59127;SDS011;44912;52.754;5.994;2022-11-20T01:17:31;15.55;;;9.68;;
59127;SDS011;44912;52.754;5.994;2022-11-20T01:19:57;15.32;;;9.02;;
59127;SDS011;44912;52.754;5.994;2022-11-20T01:22:22;14.88;;;8.93;;
59127;SDS011;44912;52.754;5.994;2022-11-20T01:24:48;17.67;;;10.70;;
59127;SDS011;44912;52.754;5.994;2022-11-20T01:27:13;16.45;;;9.93;;
59127;SDS011;44912;52.754;5.994;2022-11-20T01:29:39;16.73;;;10.02;;
59127;SDS011;44912;52.754;5.994;2022-11-20T01:32:04;16.60;;;9.70;;
59127;SDS011;44912;52.754;5.994;2022-11-20T01:34:30;17.23;;;9.88;;
59127;SDS011;44912;52.754;5.994;2022-11-20T01:36:56;16.13;;;10.15;;
59127;SDS011;44912;52.754;5.994;2022-11-20T01:39:22;17.25;;;10.75;;
59127;SDS011;44912;52.754;5.994;2022-11-20T01:41:50;18.40;;;10.85;;
59127;SDS011;44912;52.754;5.994;2022-11-20T01:47:14;16.98;;;10.35;;
59127;SDS011;44912;52.754;5.994;2022-11-20T01:49:46;17.55;;;10.30;;
59127;SDS011;44912;52.754;5.994;2022-11-20T01:57:22;16.35;;;10.48;;
59127;SDS011;44912;52.754;5.994;2022-11-20T01:59:52;18.02;;;9.70;;
59127;SDS011;44912;52.754;5.994;2022-11-20T02:02:24;18.88;;;10.38;;
59127;SDS011;44912;52.754;5.994;2022-11-20T02:04:51;15.88;;;9.77;;
59127;SDS011;44912;52.754;5.994;2022-11-20T02:07:19;15.45;;;9.52;;
59127;SDS011;44912;52.754;5.994;2022-11-20T02:09:45;16.17;;;10.00;;
59127;SDS011;44912;52.754;5.994;2022-11-20T02:12:11;17.40;;;10.63;;
59127;SDS011;44912;52.754;5.994;2022-11-20T02:14:57;16.38;;;9.73;;
59127;SDS011;44912;52.754;5.994;2022-11-20T02:17:23;17.23;;;9.95;;
59127;SDS011;44912;52.754;5.994;2022-11-20T02:19:49;17.52;;;9.95;;
59127;SDS011;44912;52.754;5.994;2022-11-20T02:22:18;17.58;;;10.77;;
59127;SDS011;44912;52.754;5.994;2022-11-20T02:24:56;20.42;;;11.27;;
59127;SDS011;44912;52.754;5.994;2022-11-20T02:27:24;16.27;;;9.80;;
59127;SDS011;44912;52.754;5.994;2022-11-20T02:32:28;14.27;;;8.15;;
59127;SDS011;44912;52.754;5.994;2022-11-20T02:34:57;16.40;;;9.43;;
59127;SDS011;44912;52.754;5.994;2022-11-20T02:37:22;14.48;;;8.88;;
59127;SDS011;44912;52.754;5.994;2022-11-20T02:39:50;15.25;;;8.38;;
59127;SDS011;44912;52.754;5.994;2022-11-20T02:42:17;16.88;;;9.75;;
59127;SDS011;44912;52.754;5.994;2022-11-20T02:44:42;13.20;;;8.40;;
59127;SDS011;44912;52.754;5.994;2022-11-20T02:47:08;15.50;;;9.65;;
59127;SDS011;44912;52.754;5.994;2022-11-20T02:49:34;18.33;;;10.48;;
59127;SDS011;44912;52.754;5.994;2022-11-20T02:51:59;17.75;;;10.48;;
59127;SDS011;44912;52.754;5.994;2022-11-20T02:54:25;16.02;;;9.38;;
59127;SDS011;44912;52.754;5.994;2022-11-20T02:56:51;16.23;;;9.88;;
59127;SDS011;44912;52.754;5.994;2022-11-20T02:59:17;18.30;;;10.20;;
59127;SDS011;44912;52.754;5.994;2022-11-20T03:01:42;17.38;;;10.13;;
59127;SDS011;44912;52.754;5.994;2022-11-20T03:04:08;18.17;;;9.77;;
59127;SDS011;44912;52.754;5.994;2022-11-20T03:06:33;15.13;;;9.50;;
59127;SDS011;44912;52.754;5.994;2022-11-20T03:08:59;18.55;;;9.57;;
59127;SDS011;44912;52.754;5.994;2022-11-20T03:11:25;19.58;;;10.18;;
59127;SDS011;44912;52.754;5.994;2022-11-20T03:13:50;20.63;;;10.98;;
59127;SDS011;44912;52.754;5.994;2022-11-20T03:16:17;19.17;;;11.15;;
59127;SDS011;44912;52.754;5.994;2022-11-20T03:18:45;18.27;;;10.88;;
59127;SDS011;44912;52.754;5.994;2022-11-20T03:21:11;20.60;;;12.07;;
59127;SDS011;44912;52.754;5.994;2022-11-20T03:23:38;19.67;;;11.10;;
59127;SDS011;44912;52.754;5.994;2022-11-20T03:26:17;17.10;;;10.40;;
59127;SDS011;44912;52.754;5.994;2022-11-20T03:28:55;16.08;;;10.25;;
59127;SDS011;44912;52.754;5.994;2022-11-20T03:31:26;18.30;;;11.25;;
59127;SDS011;44912;52.754;5.994;2022-11-20T03:33:55;18.38;;;10.63;;
59127;SDS011;44912;52.754;5.994;2022-11-20T03:36:21;20.77;;;11.63;;
59127;SDS011;44912;52.754;5.994;2022-11-20T03:38:47;18.13;;;11.50;;
59127;SDS011;44912;52.754;5.994;2022-11-20T03:41:14;18.38;;;11.02;;
59127;SDS011;44912;52.754;5.994;2022-11-20T03:43:42;17.73;;;10.68;;
59127;SDS011;44912;52.754;5.994;2022-11-20T03:46:13;17.88;;;10.90;;
59127;SDS011;44912;52.754;5.994;2022-11-20T03:48:38;18.85;;;11.13;;
59127;SDS011;44912;52.754;5.994;2022-11-20T03:51:11;17.85;;;10.57;;
59127;SDS011;44912;52.754;5.994;2022-11-20T03:53:37;16.73;;;9.52;;
59127;SDS011;44912;52.754;5.994;2022-11-20T03:56:03;16.40;;;9.93;;
59127;SDS011;44912;52.754;5.994;2022-11-20T03:58:29;16.15;;;9.90;;
59127;SDS011;44912;52.754;5.994;2022-11-20T04:00:55;14.80;;;9.13;;
59127;SDS011;44912;52.754;5.994;2022-11-20T04:03:20;16.00;;;9.48;;
59127;SDS011;44912;52.754;5.994;2022-11-20T04:05:46;16.08;;;9.23;;
59127;SDS011;44912;52.754;5.994;2022-11-20T04:08:11;14.85;;;9.20;;
59127;SDS011;44912;52.754;5.994;2022-11-20T04:10:37;15.68;;;9.60;;
59127;SDS011;44912;52.754;5.994;2022-11-20T04:13:03;17.95;;;9.60;;
59127;SDS011;44912;52.754;5.994;2022-11-20T04:15:29;17.13;;;9.57;;
59127;SDS011;44912;52.754;5.994;2022-11-20T04:17:54;16.85;;;9.48;;
59127;SDS011;44912;52.754;5.994;2022-11-20T04:20:20;15.80;;;9.70;;
59127;SDS011;44912;52.754;5.994;2022-11-20T04:22:46;16.58;;;9.32;;
59127;SDS011;44912;52.754;5.994;2022-11-20T04:25:11;18.60;;;10.38;;
59127;SDS011;44912;52.754;5.994;2022-11-20T04:27:37;16.88;;;10.18;;
59127;SDS011;44912;52.754;5.994;2022-11-20T04:30:02;14.68;;;9.27;;
59127;SDS011;44912;52.754;5.994;2022-11-20T04:32:28;18.30;;;9.90;;
59127;SDS011;44912;52.754;5.994;2022-11-20T04:34:54;18.73;;;10.15;;
59127;SDS011;44912;52.754;5.994;2022-11-20T04:37:19;18.83;;;11.68;;
59127;SDS011;44912;52.754;5.994;2022-11-20T04:39:45;17.88;;;11.00;;
59127;SDS011;44912;52.754;5.994;2022-11-20T04:42:10;19.23;;;11.05;;
59127;SDS011;44912;52.754;5.994;2022-11-20T04:44:54;16.65;;;10.98;;
59127;SDS011;44912;52.754;5.994;2022-11-20T04:47:21;19.42;;;10.85;;
59127;SDS011;44912;52.754;5.994;2022-11-20T04:49:46;18.45;;;10.68;;
59127;SDS011;44912;52.754;5.994;2022-11-20T04:52:12;17.88;;;10.02;;
59127;SDS011;44912;52.754;5.994;2022-11-20T04:54:38;16.02;;;9.32;;
59127;SDS011;44912;52.754;5.994;2022-11-20T04:57:03;17.67;;;10.55;;
59127;SDS011;44912;52.754;5.994;2022-11-20T04:59:29;17.92;;;9.88;;
59127;SDS011;44912;52.754;5.994;2022-11-20T05:01:55;16.90;;;9.75;;
59127;SDS011;44912;52.754;5.994;2022-11-20T05:04:20;16.67;;;10.50;;
59127;SDS011;44912;52.754;5.994;2022-11-20T05:06:46;19.10;;;10.18;;
59127;SDS011;44912;52.754;5.994;2022-11-20T05:09:12;17.23;;;9.82;;
59127;SDS011;44912;52.754;5.994;2022-11-20T05:11:38;16.13;;;9.57;;
59127;SDS011;44912;52.754;5.994;2022-11-20T05:14:03;16.40;;;10.13;;
59127;SDS011;44912;52.754;5.994;2022-11-20T05:16:29;16.60;;;9.98;;
59127;SDS011;44912;52.754;5.994;2022-11-20T05:18:54;17.52;;;9.98;;
59127;SDS011;44912;52.754;5.994;2022-11-20T05:21:20;18.88;;;11.23;;
59127;SDS011;44912;52.754;5.994;2022-11-20T05:23:46;19.52;;;11.63;;
59127;SDS011;44912;52.754;5.994;2022-11-20T05:26:13;18.08;;;10.90;;
59127;SDS011;44912;52.754;5.994;2022-11-20T05:28:43;18.63;;;10.75;;
59127;SDS011;44912;52.754;5.994;2022-11-20T05:31:10;18.50;;;11.50;;
59127;SDS011;44912;52.754;5.994;2022-11-20T05:33:40;17.52;;;11.10;;
59127;SDS011;44912;52.754;5.994;2022-11-20T05:36:07;17.85;;;10.13;;
59127;SDS011;44912;52.754;5.994;2022-11-20T05:38:34;19.17;;;11.25;;
59127;SDS011;44912;52.754;5.994;2022-11-20T05:41:04;22.70;;;12.23;;
59127;SDS011;44912;52.754;5.994;2022-11-20T05:43:31;19.65;;;10.90;;
59127;SDS011;44912;52.754;5.994;2022-11-20T05:45:58;19.83;;;10.80;;
59127;SDS011;44912;52.754;5.994;2022-11-20T05:48:23;19.50;;;12.18;;
59127;SDS011;44912;52.754;5.994;2022-11-20T05:50:50;19.65;;;11.13;;
59127;SDS011;44912;52.754;5.994;2022-11-20T05:53:18;19.08;;;11.30;;
59127;SDS011;44912;52.754;5.994;2022-11-20T05:55:43;20.63;;;11.68;;
59127;SDS011;44912;52.754;5.994;2022-11-20T05:58:09;18.50;;;11.57;;
59127;SDS011;44912;52.754;5.994;2022-11-20T06:00:35;18.73;;;11.48;;
59127;SDS011;44912;52.754;5.994;2022-11-20T06:03:00;17.35;;;10.80;;
59127;SDS011;44912;52.754;5.994;2022-11-20T06:05:26;18.88;;;11.60;;
59127;SDS011;44912;52.754;5.994;2022-11-20T06:07:52;18.95;;;11.48;;
59127;SDS011;44912;52.754;5.994;2022-11-20T06:10:17;17.85;;;11.35;;
59127;SDS011;44912;52.754;5.994;2022-11-20T06:12:43;19.60;;;11.85;;
59127;SDS011;44912;52.754;5.994;2022-11-20T06:15:08;18.02;;;10.15;;
59127;SDS011;44912;52.754;5.994;2022-11-20T06:17:34;18.27;;;11.55;;
59127;SDS011;44912;52.754;5.994;2022-11-20T06:20:00;22.33;;;12.45;;
59127;SDS011;44912;52.754;5.994;2022-11-20T06:22:25;21.85;;;11.95;;
59127;SDS011;44912;52.754;5.994;2022-11-20T06:24:51;19.45;;;11.88;;
59127;SDS011;44912;52.754;5.994;2022-11-20T06:27:17;19.25;;;11.23;;
59127;SDS011;44912;52.754;5.994;2022-11-20T06:29:42;19.02;;;11.73;;
59127;SDS011;44912;52.754;5.994;2022-11-20T06:32:08;20.38;;;11.85;;
59127;SDS011;44912;52.754;5.994;2022-11-20T06:34:34;20.77;;;12.05;;
59127;SDS011;44912;52.754;5.994;2022-11-20T06:36:59;19.08;;;12.38;;
59127;SDS011;44912;52.754;5.994;2022-11-20T06:39:25;19.58;;;11.32;;
59127;SDS011;44912;52.754;5.994;2022-11-20T06:41:50;19.35;;;12.68;;
59127;SDS011;44912;52.754;5.994;2022-11-20T06:44:16;20.20;;;12.23;;
59127;SDS011;44912;52.754;5.994;2022-11-20T06:46:41;18.75;;;11.73;;
59127;SDS011;44912;52.754;5.994;2022-11-20T06:49:07;20.27;;;11.95;;
59127;SDS011;44912;52.754;5.994;2022-11-20T06:51:32;18.35;;;11.07;;
59127;SDS011;44912;52.754;5.994;2022-11-20T06:53:58;19.20;;;11.70;;
59127;SDS011;44912;52.754;5.994;2022-11-20T06:56:23;21.05;;;12.25;;
59127;SDS011;44912;52.754;5.994;2022-11-20T06:58:49;19.33;;;11.57;;
59127;SDS011;44912;52.754;5.994;2022-11-20T07:01:14;19.45;;;11.65;;
59127;SDS011;44912;52.754;5.994;2022-11-20T07:03:40;19.15;;;11.60;;
59127;SDS011;44912;52.754;5.994;2022-11-20T07:06:06;17.95;;;11.20;;
59127;SDS011;44912;52.754;5.994;2022-11-20T07:08:33;20.42;;;12.38;;
59127;SDS011;44912;52.754;5.994;2022-11-20T07:11:00;19.58;;;12.32;;
59127;SDS011;44912;52.754;5.994;2022-11-20T07:13:28;21.55;;;12.65;;
59127;SDS011;44912;52.754;5.994;2022-11-20T07:15:54;22.70;;;12.07;;
59127;SDS011;44912;52.754;5.994;2022-11-20T07:18:20;20.88;;;12.80;;
59127;SDS011;44912;52.754;5.994;2022-11-20T07:20:46;22.27;;;12.60;;
59127;SDS011;44912;52.754;5.994;2022-11-20T07:23:11;21.25;;;12.45;;
59127;SDS011;44912;52.754;5.994;2022-11-20T07:25:37;21.13;;;13.02;;
59127;SDS011;44912;52.754;5.994;2022-11-20T07:28:02;21.08;;;11.95;;
59127;SDS011;44912;52.754;5.994;2022-11-20T07:30:28;21.33;;;12.68;;
59127;SDS011;44912;52.754;5.994;2022-11-20T07:32:55;22.50;;;12.82;;
59127;SDS011;44912;52.754;5.994;2022-11-20T07:35:21;21.70;;;13.32;;
59127;SDS011;44912;52.754;5.994;2022-11-20T07:37:47;19.98;;;12.45;;
59127;SDS011;44912;52.754;5.994;2022-11-20T07:40:13;24.05;;;13.50;;
59127;SDS011;44912;52.754;5.994;2022-11-20T07:42:49;21.25;;;12.20;;
59127;SDS011;44912;52.754;5.994;2022-11-20T07:45:16;19.95;;;12.75;;
59127;SDS011;44912;52.754;5.994;2022-11-20T07:47:43;20.75;;;12.50;;
59127;SDS011;44912;52.754;5.994;2022-11-20T07:50:09;18.42;;;12.15;;
59127;SDS011;44912;52.754;5.994;2022-11-20T07:52:35;21.35;;;12.50;;
59127;SDS011;44912;52.754;5.994;2022-11-20T07:55:00;19.75;;;13.32;;
59127;SDS011;44912;52.754;5.994;2022-11-20T07:57:26;20.00;;;12.98;;
59127;SDS011;44912;52.754;5.994;2022-11-20T07:59:51;21.88;;;13.43;;
59127;SDS011;44912;52.754;5.994;2022-11-20T08:02:17;25.92;;;13.40;;
59127;SDS011;44912;52.754;5.994;2022-11-20T08:04:42;24.08;;;14.30;;
59127;SDS011;44912;52.754;5.994;2022-11-20T08:07:08;22.23;;;14.18;;
59127;SDS011;44912;52.754;5.994;2022-11-20T08:09:33;21.67;;;13.85;;
59127;SDS011;44912;52.754;5.994;2022-11-20T08:11:59;21.88;;;13.52;;
59127;SDS011;44912;52.754;5.994;2022-11-20T08:14:43;21.50;;;13.63;;
59127;SDS011;44912;52.754;5.994;2022-11-20T08:17:09;24.27;;;14.75;;
59127;SDS011;44912;52.754;5.994;2022-11-20T08:19:35;20.77;;;13.43;;
59127;SDS011;44912;52.754;5.994;2022-11-20T08:22:00;19.92;;;13.30;;
59127;SDS011;44912;52.754;5.994;2022-11-20T08:24:26;21.50;;;13.45;;
59127;SDS011;44912;52.754;5.994;2022-11-20T08:26:51;24.42;;;13.93;;
59127;SDS011;44912;52.754;5.994;2022-11-20T08:29:17;21.02;;;12.60;;
59127;SDS011;44912;52.754;5.994;2022-11-20T08:31:43;21.10;;;13.95;;
59127;SDS011;44912;52.754;5.994;2022-11-20T08:34:09;21.67;;;12.88;;
59127;SDS011;44912;52.754;5.994;2022-11-20T08:36:34;22.48;;;13.82;;
59127;SDS011;44912;52.754;5.994;2022-11-20T08:39:00;19.88;;;13.48;;
59127;SDS011;44912;52.754;5.994;2022-11-20T08:41:27;21.23;;;13.00;;
59127;SDS011;44912;52.754;5.994;2022-11-20T08:43:56;20.73;;;12.80;;
59127;SDS011;44912;52.754;5.994;2022-11-20T08:46:26;19.38;;;13.10;;
59127;SDS011;44912;52.754;5.994;2022-11-20T08:48:55;22.65;;;13.27;;
59127;SDS011;44912;52.754;5.994;2022-11-20T08:51:21;20.83;;;13.38;;
59127;SDS011;44912;52.754;5.994;2022-11-20T08:53:46;19.80;;;13.32;;
59127;SDS011;44912;52.754;5.994;2022-11-20T08:56:15;23.85;;;13.57;;
59127;SDS011;44912;52.754;5.994;2022-11-20T08:58:42;19.45;;;12.55;;
59127;SDS011;44912;52.754;5.994;2022-11-20T09:01:07;19.48;;;13.23;;
59127;SDS011;44912;52.754;5.994;2022-11-20T09:03:33;18.50;;;12.30;;
59127;SDS011;44912;52.754;5.994;2022-11-20T09:06:03;20.92;;;12.20;;
59127;SDS011;44912;52.754;5.994;2022-11-20T09:08:31;18.17;;;12.55;;
59127;SDS011;44912;52.754;5.994;2022-11-20T09:10:57;21.83;;;13.57;;
59127;SDS011;44912;52.754;5.994;2022-11-20T09:13:24;19.33;;;12.95;;
59127;SDS011;44912;52.754;5.994;2022-11-20T09:15:55;19.23;;;12.90;;
59127;SDS011;44912;52.754;5.994;2022-11-20T09:18:22;20.10;;;12.55;;
59127;SDS011;44912;52.754;5.994;2022-11-20T09:20:49;20.13;;;12.00;;
59127;SDS011;44912;52.754;5.994;2022-11-20T09:23:14;19.42;;;12.60;;
59127;SDS011;44912;52.754;5.994;2022-11-20T09:25:40;19.20;;;12.50;;
59127;SDS011;44912;52.754;5.994;2022-11-20T09:28:06;20.17;;;13.07;;
59127;SDS011;44912;52.754;5.994;2022-11-20T09:30:32;20.95;;;13.45;;
59127;SDS011;44912;52.754;5.994;2022-11-20T09:32:58;19.85;;;12.50;;
59127;SDS011;44912;52.754;5.994;2022-11-20T09:35:23;20.00;;;13.15;;
59127;SDS011;44912;52.754;5.994;2022-11-20T09:37:49;20.58;;;12.65;;
59127;SDS011;44912;52.754;5.994;2022-11-20T09:40:25;19.00;;;12.48;;
59127;SDS011;44912;52.754;5.994;2022-11-20T09:45:30;19.13;;;12.93;;
59127;SDS011;44912;52.754;5.994;2022-11-20T09:48:14;19.25;;;12.55;;
59127;SDS011;44912;52.754;5.994;2022-11-20T09:56:17;18.45;;;12.05;;
59127;SDS011;44912;52.754;5.994;2022-11-20T09:58:45;16.23;;;11.75;;
59127;SDS011;44912;52.754;5.994;2022-11-20T10:01:16;17.73;;;11.70;;
59127;SDS011;44912;52.754;5.994;2022-11-20T10:06:24;18.90;;;11.85;;
59127;SDS011;44912;52.754;5.994;2022-11-20T10:08:59;18.55;;;12.32;;
59127;SDS011;44912;52.754;5.994;2022-11-20T10:12:17;18.00;;;12.38;;
59127;SDS011;44912;52.754;5.994;2022-11-20T10:17:14;17.80;;;12.75;;
59127;SDS011;44912;52.754;5.994;2022-11-20T10:20:09;17.60;;;11.65;;
59127;SDS011;44912;52.754;5.994;2022-11-20T10:25:19;19.73;;;12.77;;
59127;SDS011;44912;52.754;5.994;2022-11-20T10:27:59;17.60;;;12.25;;
59127;SDS011;44912;52.754;5.994;2022-11-20T10:30:36;18.00;;;12.23;;
59127;SDS011;44912;52.754;5.994;2022-11-20T10:33:21;17.77;;;12.20;;
59127;SDS011;44912;52.754;5.994;2022-11-20T10:36:04;20.60;;;13.32;;
59127;SDS011;44912;52.754;5.994;2022-11-20T10:38:44;19.85;;;12.57;;
59127;SDS011;44912;52.754;5.994;2022-11-20T10:41:25;17.20;;;12.05;;
59127;SDS011;44912;52.754;5.994;2022-11-20T10:44:14;19.98;;;12.55;;
59127;SDS011;44912;52.754;5.994;2022-11-20T10:47:01;19.73;;;13.10;;
59127;SDS011;44912;52.754;5.994;2022-11-20T10:49:43;17.50;;;12.40;;
59127;SDS011;44912;52.754;5.994;2022-11-20T10:52:20;18.92;;;12.52;;
59127;SDS011;44912;52.754;5.994;2022-11-20T10:55:23;18.55;;;12.40;;
59127;SDS011;44912;52.754;5.994;2022-11-20T10:57:59;17.17;;;11.45;;
59127;SDS011;44912;52.754;5.994;2022-11-20T11:00:32;18.80;;;12.13;;
59127;SDS011;44912;52.754;5.994;2022-11-20T11:02:58;17.92;;;11.75;;
59127;SDS011;44912;52.754;5.994;2022-11-20T11:08:21;17.77;;;11.50;;
59127;SDS011;44912;52.754;5.994;2022-11-20T11:10:50;19.08;;;11.30;;
59127;SDS011;44912;52.754;5.994;2022-11-20T11:13:25;17.67;;;11.88;;
59127;SDS011;44912;52.754;5.994;2022-11-20T11:15:52;18.17;;;12.20;;
59127;SDS011;44912;52.754;5.994;2022-11-20T11:18:31;17.00;;;12.20;;
59127;SDS011;44912;52.754;5.994;2022-11-20T11:20:59;19.27;;;12.60;;
59127;SDS011;44912;52.754;5.994;2022-11-20T11:26:04;16.75;;;11.40;;
59127;SDS011;44912;52.754;5.994;2022-11-20T11:28:31;18.20;;;12.07;;
59127;SDS011;44912;52.754;5.994;2022-11-20T11:30:57;17.52;;;12.35;;
59127;SDS011;44912;52.754;5.994;2022-11-20T11:33:24;18.63;;;11.95;;
59127;SDS011;44912;52.754;5.994;2022-11-20T11:35:52;16.42;;;11.70;;
59127;SDS011;44912;52.754;5.994;2022-11-20T11:38:22;17.15;;;11.48;;
59127;SDS011;44912;52.754;5.994;2022-11-20T11:41:02;18.15;;;10.73;;
59127;SDS011;44912;52.754;5.994;2022-11-20T11:43:30;16.83;;;11.18;;
59127;SDS011;44912;52.754;5.994;2022-11-20T11:49:00;17.35;;;11.50;;
59127;SDS011;44912;52.754;5.994;2022-11-20T11:51:37;16.50;;;11.43;;
59127;SDS011;44912;52.754;5.994;2022-11-20T11:54:45;17.15;;;11.75;;
59127;SDS011;44912;52.754;5.994;2022-11-20T12:02:38;17.45;;;11.80;;
59127;SDS011;44912;52.754;5.994;2022-11-20T12:16:17;17.38;;;11.60;;
59127;SDS011;44912;52.754;5.994;2022-11-20T12:18:45;16.58;;;11.23;;
59127;SDS011;44912;52.754;5.994;2022-11-20T12:26:32;15.95;;;11.30;;
59127;SDS011;44912;52.754;5.994;2022-11-20T12:29:16;15.02;;;10.95;;
59127;SDS011;44912;52.754;5.994;2022-11-20T12:31:56;15.80;;;11.00;;
59127;SDS011;44912;52.754;5.994;2022-11-20T12:42:56;14.70;;;9.75;;
59127;SDS011;44912;52.754;5.994;2022-11-20T12:45:59;14.70;;;9.65;;
59127;SDS011;44912;52.754;5.994;2022-11-20T12:57:29;19.48;;;10.60;;
59127;SDS011;44912;52.754;5.994;2022-11-20T13:05:55;16.95;;;11.23;;
59127;SDS011;44912;52.754;5.994;2022-11-20T13:08:37;15.82;;;10.85;;
59127;SDS011;44912;52.754;5.994;2022-11-20T13:11:19;15.70;;;11.18;;
59127;SDS011;44912;52.754;5.994;2022-11-20T13:19:54;15.95;;;10.82;;
59127;SDS011;44912;52.754;5.994;2022-11-20T13:22:57;17.70;;;11.02;;
59127;SDS011;44912;52.754;5.994;2022-11-20T13:25:24;16.15;;;10.98;;
59127;SDS011;44912;52.754;5.994;2022-11-20T13:27:52;16.45;;;11.32;;
59127;SDS011;44912;52.754;5.994;2022-11-20T13:30:20;16.48;;;11.50;;
59127;SDS011;44912;52.754;5.994;2022-11-20T13:32:51;15.63;;;11.30;;
59127;SDS011;44912;52.754;5.994;2022-11-20T13:35:29;17.55;;;11.43;;
59127;SDS011;44912;52.754;5.994;2022-11-20T13:38:10;16.73;;;11.18;;
59127;SDS011;44912;52.754;5.994;2022-11-20T13:40:38;17.17;;;11.75;;
59127;SDS011;44912;52.754;5.994;2022-11-20T13:43:33;19.40;;;11.60;;
59127;SDS011;44912;52.754;5.994;2022-11-20T13:46:05;18.60;;;11.45;;
59127;SDS011;44912;52.754;5.994;2022-11-20T13:48:39;19.35;;;12.88;;
59127;SDS011;44912;52.754;5.994;2022-11-20T13:53:48;16.73;;;11.45;;
59127;SDS011;44912;52.754;5.994;2022-11-20T14:02:14;17.85;;;12.40;;
59127;SDS011;44912;52.754;5.994;2022-11-20T14:04:43;16.98;;;11.48;;
59127;SDS011;44912;52.754;5.994;2022-11-20T14:07:11;16.23;;;11.57;;
59127;SDS011;44912;52.754;5.994;2022-11-20T14:09:37;17.45;;;11.38;;
59127;SDS011;44912;52.754;5.994;2022-11-20T14:12:03;16.80;;;11.18;;
59127;SDS011;44912;52.754;5.994;2022-11-20T14:14:46;18.17;;;12.43;;
59127;SDS011;44912;52.754;5.994;2022-11-20T14:20:04;18.70;;;12.73;;
59127;SDS011;44912;52.754;5.994;2022-11-20T14:22:31;18.88;;;12.93;;
59127;SDS011;44912;52.754;5.994;2022-11-20T14:25:18;19.83;;;12.63;;
59127;SDS011;44912;52.754;5.994;2022-11-20T14:27:52;19.17;;;12.63;;
59127;SDS011;44912;52.754;5.994;2022-11-20T14:30:24;18.85;;;13.18;;
59127;SDS011;44912;52.754;5.994;2022-11-20T14:35:26;18.20;;;12.90;;
59127;SDS011;44912;52.754;5.994;2022-11-20T14:37:54;19.83;;;13.02;;
59127;SDS011;44912;52.754;5.994;2022-11-20T14:40:31;18.77;;;13.68;;
59127;SDS011;44912;52.754;5.994;2022-11-20T14:43:00;17.48;;;12.48;;
59127;SDS011;44912;52.754;5.994;2022-11-20T14:45:27;19.63;;;13.57;;
59127;SDS011;44912;52.754;5.994;2022-11-20T14:47:53;18.23;;;13.02;;
59127;SDS011;44912;52.754;5.994;2022-11-20T14:50:25;19.80;;;13.25;;
59127;SDS011;44912;52.754;5.994;2022-11-20T14:52:56;18.48;;;13.13;;
59127;SDS011;44912;52.754;5.994;2022-11-20T14:55:27;19.00;;;13.65;;
59127;SDS011;44912;52.754;5.994;2022-11-20T14:57:58;18.13;;;13.32;;
59127;SDS011;44912;52.754;5.994;2022-11-20T15:00:32;18.17;;;13.30;;
59127;SDS011;44912;52.754;5.994;2022-11-20T15:02:58;18.13;;;13.18;;
59127;SDS011;44912;52.754;5.994;2022-11-20T15:05:25;18.17;;;13.65;;
59127;SDS011;44912;52.754;5.994;2022-11-20T15:08:10;20.15;;;14.00;;
59127;SDS011;44912;52.754;5.994;2022-11-20T15:10:35;19.17;;;14.10;;
59127;SDS011;44912;52.754;5.994;2022-11-20T15:13:05;21.02;;;13.73;;
59127;SDS011;44912;52.754;5.994;2022-11-20T15:15:39;19.58;;;13.00;;
59127;SDS011;44912;52.754;5.994;2022-11-20T15:18:32;19.10;;;13.25;;
59127;SDS011;44912;52.754;5.994;2022-11-20T15:21:03;20.38;;;13.52;;
59127;SDS011;44912;52.754;5.994;2022-11-20T15:23:35;20.58;;;13.65;;
59127;SDS011;44912;52.754;5.994;2022-11-20T15:26:00;18.60;;;13.25;;
59127;SDS011;44912;52.754;5.994;2022-11-20T15:28:36;18.42;;;13.15;;
59127;SDS011;44912;52.754;5.994;2022-11-20T15:31:04;19.55;;;13.07;;
59127;SDS011;44912;52.754;5.994;2022-11-20T15:33:30;21.83;;;13.63;;
59127;SDS011;44912;52.754;5.994;2022-11-20T15:35:56;18.63;;;12.77;;
59127;SDS011;44912;52.754;5.994;2022-11-20T15:38:22;19.52;;;13.65;;
59127;SDS011;44912;52.754;5.994;2022-11-20T15:40:48;19.85;;;13.65;;
59127;SDS011;44912;52.754;5.994;2022-11-20T15:43:13;18.42;;;13.35;;
59127;SDS011;44912;52.754;5.994;2022-11-20T15:45:43;18.13;;;12.23;;
59127;SDS011;44912;52.754;5.994;2022-11-20T15:48:12;18.95;;;12.60;;
59127;SDS011;44912;52.754;5.994;2022-11-20T15:53:35;17.83;;;12.23;;
59127;SDS011;44912;52.754;5.994;2022-11-20T15:56:01;17.95;;;12.18;;
59127;SDS011;44912;52.754;5.994;2022-11-20T15:58:27;21.30;;;13.48;;
59127;SDS011;44912;52.754;5.994;2022-11-20T16:00:53;17.58;;;12.32;;
59127;SDS011;44912;52.754;5.994;2022-11-20T16:03:19;17.77;;;12.40;;
59127;SDS011;44912;52.754;5.994;2022-11-20T16:05:45;19.13;;;12.50;;
59127;SDS011;44912;52.754;5.994;2022-11-20T16:08:10;19.08;;;13.30;;
59127;SDS011;44912;52.754;5.994;2022-11-20T16:10:36;18.80;;;13.52;;
59127;SDS011;44912;52.754;5.994;2022-11-20T16:13:02;18.98;;;13.77;;
59127;SDS011;44912;52.754;5.994;2022-11-20T16:15:50;18.80;;;12.30;;
59127;SDS011;44912;52.754;5.994;2022-11-20T16:18:19;20.35;;;14.05;;